Time;durP1;ratioP1;P1;durP2;ratioP2;P2;SDS_P1;SDS_P2;PMS_P1;PMS_P2;Temp;Humidity;BMP_temperature;BMP_pressure;BME280_temperature;BME280_humidity;BME280_pressure;Samples;Min_cycle;Max_cycle;Signal;HPM_P1;HPM_P2
2022/09/21 00:02:31;;;;;;;6.87;3.53;;;9.50;99.90;;;;;;10486643;28;20705;-72
2022/09/21 00:07:31;;;;;;;5.53;3.40;;;9.40;99.90;;;;;;10487827;28;20222;-72
2022/09/21 00:12:32;;;;;;;5.73;4.27;;;9.40;99.90;;;;;;10473761;28;20620;-71
2022/09/21 00:17:33;;;;;;;5.30;4.10;;;9.40;99.90;;;;;;10484324;28;20233;-73
2022/09/21 00:22:34;;;;;;;6.33;4.30;;;9.50;99.90;;;;;;10488271;28;20230;-73
2022/09/21 00:27:35;;;;;;;8.10;5.00;;;9.50;99.90;;;;;;10488706;28;20225;-72
2022/09/21 00:32:38;;;;;;;7.03;4.00;;;9.50;99.90;;;;;;10501481;28;20600;-72
2022/09/21 00:37:38;;;;;;;7.10;4.43;;;9.50;99.90;;;;;;10464325;28;20222;-72
2022/09/21 00:42:39;;;;;;;8.63;4.33;;;9.60;99.90;;;;;;10475342;28;20223;-73
2022/09/21 00:47:42;;;;;;;6.70;3.67;;;9.50;99.90;;;;;;10478867;28;20291;-73
2022/09/21 00:52:46;;;;;;;8.10;4.13;;;9.50;99.90;;;;;;10485993;28;20232;-73
2022/09/21 00:57:50;;;;;;;7.30;3.77;;;9.50;99.90;;;;;;10491120;28;20245;-74
2022/09/21 01:02:51;;;;;;;3.80;3.40;;;9.40;99.90;;;;;;10478073;28;20224;-73
2022/09/21 01:07:52;;;;;;;5.03;3.53;;;9.30;99.90;;;;;;10488629;28;20221;-72
2022/09/21 01:13:41;;;;;;;4.30;3.40;;;9.20;99.90;;;;;;10473076;28;20221;-73
2022/09/21 01:18:57;;;;;;;8.93;4.27;;;9.10;99.90;;;;;;10466256;28;20233;-73
2022/09/21 01:24:01;;;;;;;5.00;3.87;;;9.00;99.90;;;;;;10471374;28;20225;-72
2022/09/21 01:29:22;;;;;;;7.60;4.00;;;8.90;99.90;;;;;;10472645;28;20673;-74
2022/09/21 01:34:35;;;;;;;5.37;3.70;;;8.90;99.90;;;;;;10477862;28;20265;-71
2022/09/21 01:39:39;;;;;;;5.80;4.13;;;8.80;99.90;;;;;;10454492;28;20769;-74
2022/09/21 01:44:42;;;;;;;7.73;4.63;;;8.80;99.90;;;;;;10494320;28;20939;-73
2022/09/21 01:49:51;;;;;;;5.33;4.30;;;8.80;99.90;;;;;;10491476;28;20220;-73
2022/09/21 01:55:16;;;;;;;5.97;4.37;;;8.80;99.90;;;;;;10491381;28;20274;-72
2022/09/21 02:00:17;;;;;;;4.97;4.17;;;8.70;99.90;;;;;;10467924;28;20230;-75
2022/09/21 02:05:20;;;;;;;8.60;4.43;;;8.60;99.90;;;;;;10490820;28;20542;-75
2022/09/21 02:10:36;;;;;;;4.57;3.93;;;8.50;99.90;;;;;;10484437;28;20277;-74
2022/09/21 02:15:39;;;;;;;5.37;4.50;;;8.50;99.90;;;;;;10484741;28;20214;-73
2022/09/21 02:20:56;;;;;;;5.50;4.60;;;8.50;99.90;;;;;;10475749;28;20718;-73
2022/09/21 02:26:05;;;;;;;6.37;4.30;;;8.40;99.90;;;;;;10490411;28;20716;-72
2022/09/21 02:31:35;;;;;;;8.10;4.80;;;8.40;99.90;;;;;;10482163;28;20229;-73
2022/09/21 02:36:47;;;;;;;5.33;4.57;;;8.40;99.90;;;;;;10478710;28;20310;-74
2022/09/21 02:42:11;;;;;;;10.00;4.73;;;8.40;99.90;;;;;;10479863;28;20237;-74
2022/09/21 02:47:24;;;;;;;7.23;5.03;;;8.30;99.90;;;;;;10492690;28;20230;-75
2022/09/21 02:52:26;;;;;;;8.87;6.10;;;8.40;99.90;;;;;;10451487;28;20907;-75
2022/09/21 02:57:27;;;;;;;7.63;5.90;;;8.40;99.90;;;;;;10487359;28;20224;-75
2022/09/21 03:02:42;;;;;;;11.27;5.33;;;8.40;99.90;;;;;;10472211;28;20305;-74
2022/09/21 03:07:43;;;;;;;7.63;6.33;;;8.40;99.90;;;;;;10472106;28;20641;-74
2022/09/21 03:12:45;;;;;;;7.93;5.70;;;8.40;99.90;;;;;;10479780;28;20240;-73
2022/09/21 03:17:45;;;;;;;10.70;5.90;;;8.30;99.90;;;;;;10484535;28;20216;-74
2022/09/21 03:22:46;;;;;;;7.87;5.80;;;8.30;99.90;;;;;;10495806;28;20212;-73
2022/09/21 03:27:46;;;;;;;12.57;6.50;;;8.30;99.90;;;;;;10499205;28;20215;-73
2022/09/21 03:32:51;;;;;;;9.97;6.10;;;8.20;99.90;;;;;;10499454;28;20224;-73
2022/09/21 03:37:54;;;;;;;15.57;6.60;;;8.20;99.90;;;;;;10491596;28;20866;-74
2022/09/21 03:42:54;;;;;;;10.63;5.63;;;8.20;99.90;;;;;;10492047;28;20223;-73
2022/09/21 03:47:56;;;;;;;10.73;6.47;;;8.10;99.90;;;;;;10484143;28;20216;-73
2022/09/21 03:52:57;;;;;;;10.47;6.30;;;8.10;99.90;;;;;;10475177;28;20238;-73
2022/09/21 03:57:59;;;;;;;8.47;5.90;;;8.10;99.90;;;;;;10494596;28;20696;-75
2022/09/21 04:03:00;;;;;;;8.50;5.90;;;8.00;99.90;;;;;;10479512;28;20229;-74
2022/09/21 04:08:01;;;;;;;6.63;5.53;;;8.00;99.90;;;;;;10474326;28;20233;-75
2022/09/21 04:13:03;;;;;;;8.37;5.97;;;7.80;99.90;;;;;;10494906;28;20215;-73
2022/09/21 04:18:04;;;;;;;8.63;6.07;;;7.80;99.90;;;;;;10500371;28;20287;-72
2022/09/21 04:23:06;;;;;;;7.30;5.87;;;7.70;99.90;;;;;;10498137;28;20237;-73
2022/09/21 04:28:07;;;;;;;11.30;6.80;;;7.60;99.90;;;;;;10475072;28;20230;-74
2022/09/21 04:33:07;;;;;;;9.07;6.53;;;7.60;99.90;;;;;;10488992;28;20730;-75
2022/09/21 04:38:08;;;;;;;10.20;5.70;;;7.60;99.90;;;;;;10494013;28;20914;-75
2022/09/21 04:43:09;;;;;;;8.33;6.50;;;7.70;99.90;;;;;;10495210;28;20218;-72
2022/09/21 04:48:09;;;;;;;7.63;5.70;;;7.70;99.90;;;;;;10499142;28;20235;-74
2022/09/21 04:53:10;;;;;;;10.60;6.10;;;7.60;99.90;;;;;;10473291;28;20440;-72
2022/09/21 04:58:10;;;;;;;8.17;6.10;;;7.60;99.90;;;;;;10490499;28;20690;-74
2022/09/21 05:03:11;;;;;;;10.73;6.27;;;7.50;99.90;;;;;;10476204;28;20225;-74
2022/09/21 05:08:11;;;;;;;8.70;6.07;;;7.40;99.90;;;;;;10494648;28;20222;-74
2022/09/21 05:13:12;;;;;;;11.27;7.10;;;7.50;99.90;;;;;;10472118;28;20223;-72
2022/09/21 05:18:13;;;;;;;16.40;6.87;;;7.50;99.90;;;;;;10488753;28;20689;-65
2022/09/21 05:23:13;;;;;;;11.10;6.50;;;7.50;99.90;;;;;;10478121;28;20210;-66
2022/09/21 05:28:15;;;;;;;9.40;5.63;;;7.60;99.90;;;;;;10493620;28;20226;-65
2022/09/21 05:33:19;;;;;;;6.53;5.27;;;7.60;99.90;;;;;;10480516;28;20705;-65
2022/09/21 05:38:20;;;;;;;7.20;4.90;;;7.60;99.90;;;;;;10483173;28;20214;-65
2022/09/21 05:43:21;;;;;;;8.87;5.03;;;7.60;99.90;;;;;;10486042;28;20222;-65
2022/09/21 05:48:37;;;;;;;5.73;5.00;;;7.70;99.90;;;;;;10476149;28;20223;-66
2022/09/21 05:53:43;;;;;;;8.23;4.97;;;7.80;99.90;;;;;;10475142;28;20650;-66
2022/09/21 05:59:04;;;;;;;7.33;5.13;;;7.90;99.90;;;;;;10489985;28;20225;-74
2022/09/21 06:04:12;;;;;;;5.13;4.50;;;7.90;99.90;;;;;;10468261;28;20249;-75
2022/09/21 06:09:13;;;;;;;8.43;4.93;;;8.00;99.90;;;;;;10498333;28;20229;-75
2022/09/21 06:14:14;;;;;;;8.43;5.03;;;8.10;99.90;;;;;;10485662;28;20575;-74
2022/09/21 06:19:14;;;;;;;9.33;6.30;;;8.20;99.90;;;;;;10476555;28;20217;-75
2022/09/21 06:24:15;;;;;;;7.30;4.73;;;8.20;99.90;;;;;;10489857;28;20223;-74
2022/09/21 06:29:22;;;;;;;8.17;4.90;;;8.40;99.90;;;;;;10493921;28;20220;-75
2022/09/21 06:34:22;;;;;;;5.87;4.77;;;8.70;99.90;;;;;;10492719;28;20275;-73
2022/09/21 06:39:23;;;;;;;5.47;4.00;;;9.10;99.90;;;;;;10480249;28;20236;-74
2022/09/21 06:44:25;;;;;;;9.13;4.03;;;9.90;99.90;;;;;;10490902;28;20687;-73
2022/09/21 06:49:29;;;;;;;6.97;4.47;;;9.70;99.90;;;;;;10492733;28;20236;-74
2022/09/21 06:54:30;;;;;;;7.83;4.80;;;9.70;99.90;;;;;;10473268;28;20654;-73
2022/09/21 06:59:30;;;;;;;8.03;4.70;;;9.80;99.90;;;;;;10476096;28;20260;-74
2022/09/21 07:04:31;;;;;;;5.47;4.83;;;10.00;99.90;;;;;;10490849;28;20306;-74
2022/09/21 07:09:31;;;;;;;5.87;4.43;;;10.20;99.90;;;;;;10469764;28;20218;-74
2022/09/21 07:14:32;;;;;;;6.57;4.60;;;10.30;99.90;;;;;;10472655;28;20305;-74
2022/09/21 07:19:33;;;;;;;6.43;5.10;;;10.30;99.90;;;;;;10490490;28;20693;-73
2022/09/21 07:24:33;;;;;;;5.87;5.00;;;10.20;99.90;;;;;;10471639;28;20222;-75
2022/09/21 07:29:34;;;;;;;6.53;5.20;;;10.40;99.90;;;;;;10490775;28;20225;-75
2022/09/21 07:34:36;;;;;;;4.90;4.40;;;10.40;99.90;;;;;;10490728;28;20246;-75
2022/09/21 07:39:37;;;;;;;9.70;3.60;;;10.60;99.90;;;;;;10466655;28;20212;-74
2022/09/21 07:44:38;;;;;;;4.30;2.43;;;12.50;99.90;;;;;;10482399;28;20310;-74
2022/09/21 07:49:40;;;;;;;3.37;3.00;;;16.20;99.90;;;;;;10496699;28;20589;-74
2022/09/21 07:54:40;;;;;;;2.90;2.70;;;18.50;99.90;;;;;;10487646;28;20222;-74
2022/09/21 07:59:41;;;;;;;6.53;3.00;;;18.80;99.90;;;;;;10473612;28;20305;-75
2022/09/21 08:04:41;;;;;;;4.97;2.93;;;19.30;99.90;;;;;;10485640;28;20215;-73
2022/09/21 08:09:42;;;;;;;2.83;2.60;;;19.80;96.80;;;;;;10496083;28;20659;-73
2022/09/21 08:14:43;;;;;;;5.10;2.60;;;20.60;93.90;;;;;;10498580;28;20701;-74
2022/09/21 08:19:43;;;;;;;4.37;2.60;;;21.20;91.40;;;;;;10490532;28;20290;-74
2022/09/21 08:24:44;;;;;;;3.03;2.50;;;22.80;84.00;;;;;;10478365;28;20254;-75
2022/09/21 08:29:45;;;;;;;3.17;2.87;;;23.40;78.90;;;;;;10493651;28;20221;-73
2022/09/21 08:34:46;;;;;;;2.30;1.80;;;25.30;67.60;;;;;;10478911;28;20225;-74
2022/09/21 08:39:47;;;;;;;2.47;2.10;;;25.10;65.80;;;;;;10479183;28;20310;-74
2022/09/21 08:44:51;;;;;;;2.10;1.90;;;24.80;61.70;;;;;;10492839;28;20220;-73
2022/09/21 08:49:57;;;;;;;3.47;1.97;;;24.70;60.80;;;;;;10475787;28;20211;-73
2022/09/21 08:55:01;;;;;;;2.17;1.47;;;25.40;59.80;;;;;;10474799;28;20232;-72
2022/09/21 09:00:11;;;;;;;3.20;1.50;;;25.50;56.60;;;;;;10494715;28;20677;-73
2022/09/21 09:05:37;;;;;;;2.47;1.57;;;26.20;56.10;;;;;;10490684;28;20257;-72
2022/09/21 09:11:00;;;;;;;3.40;1.30;;;26.70;54.20;;;;;;10494494;28;20232;-73
2022/09/21 09:16:35;;;;;;;2.77;1.30;;;26.00;54.90;;;;;;10469198;28;20249;-73
2022/09/21 09:21:41;;;;;;;3.17;1.00;;;25.90;54.60;;;;;;10464562;28;20227;-72
2022/09/21 09:26:45;;;;;;;3.20;1.40;;;25.90;53.70;;;;;;10484279;28;20313;-73
2022/09/21 09:31:53;;;;;;;2.53;1.10;;;26.10;52.90;;;;;;10467458;28;20233;-72
2022/09/21 09:36:59;;;;;;;2.90;1.07;;;26.80;51.80;;;;;;10490452;28;20301;-74
2022/09/21 09:42:20;;;;;;;2.33;1.03;;;27.00;49.50;;;;;;10468695;28;20639;-74
2022/09/21 09:47:40;;;;;;;2.87;1.40;;;28.50;48.20;;;;;;10470856;28;20234;-72
2022/09/21 09:52:42;;;;;;;2.00;1.27;;;28.20;46.70;;;;;;10492257;28;20595;-72
2022/09/21 09:57:43;;;;;;;6.73;1.73;;;28.00;47.50;;;;;;10467681;28;20212;-72
2022/09/21 10:02:52;;;;;;;2.90;1.30;;;28.30;48.60;;;;;;10474788;28;20219;-72
2022/09/21 10:07:53;;;;;;;2.70;1.30;;;29.80;46.20;;;;;;10486876;28;20254;-72
2022/09/21 10:13:01;;;;;;;3.53;1.57;;;28.90;45.40;;;;;;10469617;28;20292;-71
2022/09/21 10:18:14;;;;;;;5.57;1.60;;;29.10;46.40;;;;;;10474111;28;20264;-73
2022/09/21 10:23:15;;;;;;;3.83;1.30;;;29.70;42.10;;;;;;10474851;28;20225;-72
2022/09/21 10:28:21;;;;;;;2.90;1.43;;;29.00;45.90;;;;;;10488800;28;20223;-72
2022/09/21 10:33:22;;;;;;;1.30;1.00;;;30.20;44.30;;;;;;10491040;28;20227;-71
2022/09/21 10:38:27;;;;;;;1.23;0.90;;;29.50;45.10;;;;;;10489160;28;20689;-72
2022/09/21 10:43:43;;;;;;;5.43;1.40;;;29.60;41.80;;;;;;10470123;28;20697;-71
2022/09/21 10:48:48;;;;;;;2.77;1.63;;;29.30;43.40;;;;;;10456966;28;20222;-73
2022/09/21 10:53:49;;;;;;;3.97;1.23;;;29.00;43.70;;;;;;10471868;28;20851;-71
2022/09/21 10:59:11;;;;;;;4.67;1.40;;;30.40;41.30;;;;;;10473570;28;20222;-71
2022/09/21 11:04:27;;;;;;;4.97;1.33;;;28.90;42.60;;;;;;10464291;28;20219;-71
2022/09/21 11:10:01;;;;;;;4.40;1.30;;;27.60;43.80;;;;;;10483409;28;20217;-70
2022/09/21 11:15:39;;;;;;;1.43;0.90;;;27.30;46.90;;;;;;10453555;28;20262;-70
2022/09/21 11:21:04;;;;;;;1.27;0.73;;;25.40;46.10;;;;;;10485333;28;20258;-70
2022/09/21 11:26:24;;;;;;;6.13;0.80;;;21.80;56.30;;;;;;10471702;28;20217;-72
2022/09/21 11:32:01;;;;;;;1.93;1.00;;;20.20;58.90;;;;;;10469586;28;20314;-71
2022/09/21 11:37:23;;;;;;;3.40;0.70;;;19.50;61.40;;;;;;10447413;28;20700;-72
2022/09/21 11:42:47;;;;;;;1.43;0.83;;;18.80;63.00;;;;;;10461727;28;20585;-73
2022/09/21 11:48:10;;;;;;;2.57;0.77;;;18.60;65.00;;;;;;10473426;28;20223;-71
2022/09/21 11:53:45;;;;;;;1.37;0.67;;;18.30;66.50;;;;;;10497319;28;20302;-72
2022/09/21 11:59:05;;;;;;;2.93;0.70;;;18.30;67.80;;;;;;10493761;28;20244;-72
2022/09/21 12:04:26;;;;;;;1.33;0.70;;;18.30;67.00;;;;;;10479692;28;20216;-72
2022/09/21 12:09:42;;;;;;;1.97;0.60;;;18.30;66.30;;;;;;10473776;28;20231;-70
2022/09/21 12:15:01;;;;;;;0.97;0.50;;;18.00;62.70;;;;;;10467709;28;20224;-72
2022/09/21 12:20:28;;;;;;;1.70;0.80;;;17.60;63.40;;;;;;10495470;28;20237;-72
2022/09/21 12:25:39;;;;;;;2.07;0.80;;;17.30;63.70;;;;;;10473939;28;20589;-71
2022/09/21 12:30:44;;;;;;;1.43;0.80;;;17.40;65.70;;;;;;10494143;28;20241;-72
2022/09/21 12:35:52;;;;;;;2.47;0.80;;;17.60;66.10;;;;;;10480260;28;20691;-72
2022/09/21 12:41:07;;;;;;;2.93;1.00;;;17.70;65.40;;;;;;10493553;28;20224;-72
2022/09/21 12:46:22;;;;;;;3.60;0.90;;;17.80;65.90;;;;;;10461933;28;20234;-72
2022/09/21 12:51:23;;;;;;;1.20;0.80;;;17.80;68.40;;;;;;10484729;28;20678;-72
2022/09/21 12:56:36;;;;;;;1.33;0.80;;;18.00;67.70;;;;;;10494914;28;20215;-72
2022/09/21 13:01:56;;;;;;;2.73;0.80;;;18.00;67.50;;;;;;10485329;28;20219;-71
2022/09/21 13:07:12;;;;;;;1.70;0.80;;;17.70;70.50;;;;;;10494431;28;20221;-72
2022/09/21 13:12:20;;;;;;;2.47;0.87;;;17.90;69.10;;;;;;10491732;28;20573;-71
2022/09/21 13:17:28;;;;;;;1.53;0.70;;;18.00;67.90;;;;;;10488568;28;20366;-73
2022/09/21 13:22:34;;;;;;;2.93;0.70;;;18.00;68.90;;;;;;10469747;28;20253;-71
2022/09/21 13:28:00;;;;;;;2.73;0.70;;;18.20;67.80;;;;;;10484466;28;20235;-72
2022/09/21 13:33:03;;;;;;;3.70;0.90;;;18.50;67.50;;;;;;10481578;28;20231;-72
2022/09/21 13:38:29;;;;;;;1.63;1.00;;;18.50;65.60;;;;;;10494906;28;20303;-72
2022/09/21 13:44:00;;;;;;;1.80;1.00;;;18.40;66.50;;;;;;10479590;28;20835;-72
2022/09/21 13:49:12;;;;;;;1.37;0.77;;;18.30;62.90;;;;;;10486825;28;20229;-73
2022/09/21 13:54:13;;;;;;;1.20;0.70;;;18.60;64.70;;;;;;10484572;28;20225;-72
2022/09/21 13:59:26;;;;;;;1.37;0.83;;;18.50;66.30;;;;;;10479892;28;20574;-73
2022/09/21 14:04:36;;;;;;;1.20;0.80;;;18.90;64.10;;;;;;10460263;28;20225;-74
2022/09/21 14:09:52;;;;;;;1.20;0.80;;;19.10;63.20;;;;;;10483817;28;20217;-72
2022/09/21 14:15:18;;;;;;;2.60;0.43;;;18.80;64.80;;;;;;10477287;28;20220;-74
2022/09/21 14:20:36;;;;;;;2.00;1.00;;;18.30;63.70;;;;;;10467267;28;20223;-74
2022/09/21 14:26:31;;;;;;;2.93;0.87;;;17.90;66.80;;;;;;10473136;28;20219;-75
2022/09/21 14:31:37;;;;;;;2.53;0.97;;;17.90;68.30;;;;;;10441732;28;20221;-78
2022/09/21 14:36:43;;;;;;;3.37;1.00;;;18.10;70.20;;;;;;10472066;28;21694;-79
2022/09/21 14:41:47;;;;;;;1.00;0.80;;;18.20;68.60;;;;;;10473094;28;20224;-78
2022/09/21 14:46:53;;;;;;;2.47;0.77;;;18.10;68.90;;;;;;10473102;28;20212;-78
2022/09/21 14:52:04;;;;;;;2.53;0.77;;;17.70;69.70;;;;;;10486333;28;20224;-78
2022/09/21 14:57:44;;;;;;;1.60;0.77;;;17.40;68.00;;;;;;10485408;28;20211;-79
2022/09/21 15:02:48;;;;;;;1.80;0.70;;;17.10;66.30;;;;;;10480716;28;20267;-75
2022/09/21 15:13:46;;;;;;;0.83;0.67;;;16.90;67.10;;;;;;10492151;28;20227;-73
2022/09/21 15:18:53;;;;;;;1.87;0.93;;;17.10;66.90;;;;;;10491495;28;20212;-77
2022/09/21 15:23:54;;;;;;;2.37;1.10;;;17.30;66.10;;;;;;10491427;28;20207;-74
2022/09/21 15:29:00;;;;;;;0.70;0.70;;;17.60;65.40;;;;;;10474816;28;20306;-76
2022/09/21 15:34:05;;;;;;;1.23;0.60;;;17.70;65.10;;;;;;10474275;28;20219;-76
2022/09/21 15:39:06;;;;;;;1.03;0.70;;;17.50;63.60;;;;;;10474730;28;20207;-75
2022/09/21 15:44:20;;;;;;;1.10;0.60;;;17.30;66.50;;;;;;10488474;28;20219;-76
2022/09/21 15:49:21;;;;;;;1.97;0.73;;;17.10;68.20;;;;;;10468321;28;20223;-75
2022/09/21 15:54:47;;;;;;;1.43;0.67;;;16.90;69.40;;;;;;10492932;28;20223;-77
2022/09/21 15:59:48;;;;;;;1.57;1.10;;;16.70;71.80;;;;;;10477011;28;20219;-74
2022/09/21 16:04:51;;;;;;;1.03;0.77;;;16.60;72.40;;;;;;10489835;28;20211;-74
2022/09/21 16:09:51;;;;;;;2.40;0.90;;;16.50;72.00;;;;;;10481348;28;20271;-76
2022/09/21 16:14:52;;;;;;;1.50;0.57;;;16.40;72.80;;;;;;10488506;28;20653;-74
2022/09/21 16:19:53;;;;;;;2.17;0.83;;;16.40;72.50;;;;;;10473296;28;20306;-78
2022/09/21 16:24:59;;;;;;;1.50;0.70;;;16.30;71.80;;;;;;10475437;28;20737;-74
2022/09/21 16:30:01;;;;;;;0.80;0.57;;;16.30;69.10;;;;;;10502786;28;20333;-75
2022/09/21 16:35:30;;;;;;;1.00;0.70;;;16.30;66.30;;;;;;10498151;28;20653;-75
2022/09/21 16:40:30;;;;;;;0.50;0.47;;;16.20;65.70;;;;;;10473786;28;20318;-75
2022/09/21 16:45:33;;;;;;;2.10;1.00;;;16.20;66.60;;;;;;10493256;28;20299;-75
2022/09/21 16:50:35;;;;;;;2.47;1.20;;;16.10;66.20;;;;;;10474460;28;20302;-76
2022/09/21 16:55:35;;;;;;;1.23;0.60;;;16.00;67.50;;;;;;10491704;28;20269;-76
2022/09/21 17:00:40;;;;;;;0.67;0.60;;;15.90;68.20;;;;;;10491100;28;20641;-78
2022/09/21 17:05:41;;;;;;;1.57;0.67;;;15.80;68.90;;;;;;10494435;28;20288;-76
2022/09/21 17:10:44;;;;;;;1.33;0.90;;;15.60;69.90;;;;;;10494193;28;20766;-76
2022/09/21 17:15:46;;;;;;;1.63;1.00;;;15.50;71.00;;;;;;10480175;28;20587;-76
2022/09/21 17:20:48;;;;;;;2.00;1.20;;;15.40;71.80;;;;;;10506788;28;20223;-77
2022/09/21 17:25:49;;;;;;;5.03;1.30;;;15.30;72.80;;;;;;10491175;28;20219;-76
2022/09/21 17:30:50;;;;;;;3.43;2.30;;;15.20;73.10;;;;;;10475059;28;20231;-78
2022/09/21 17:35:53;;;;;;;5.13;2.20;;;15.10;73.60;;;;;;10496205;28;20221;-76
2022/09/21 17:40:53;;;;;;;2.20;1.80;;;15.00;74.60;;;;;;10488844;28;20330;-77
2022/09/21 17:46:09;;;;;;;1.30;0.90;;;14.90;75.90;;;;;;10477227;28;20665;-78
2022/09/21 17:51:10;;;;;;;1.23;0.80;;;14.70;76.90;;;;;;10488601;28;20218;-77
2022/09/21 17:56:27;;;;;;;3.63;0.80;;;14.60;77.80;;;;;;10488174;28;20219;-74
2022/09/21 18:01:39;;;;;;;2.07;1.17;;;14.50;77.70;;;;;;10487592;28;20231;-76
2022/09/21 18:06:40;;;;;;;1.30;1.10;;;14.40;78.40;;;;;;10473195;28;20273;-76
2022/09/21 18:11:57;;;;;;;1.30;1.20;;;14.30;78.90;;;;;;10475829;28;20585;-77
2022/09/21 18:17:14;;;;;;;2.50;1.60;;;14.10;79.60;;;;;;10486029;28;20272;-76
2022/09/21 18:22:32;;;;;;;2.50;1.27;;;14.00;79.70;;;;;;10497302;28;20276;-76
2022/09/21 18:27:33;;;;;;;2.80;1.60;;;13.90;79.80;;;;;;10478769;28;20608;-76
2022/09/21 18:33:09;;;;;;;3.07;1.70;;;13.90;79.40;;;;;;10490891;28;20231;-75
2022/09/21 18:38:24;;;;;;;5.40;3.23;;;13.80;79.80;;;;;;10479004;28;20219;-75
2022/09/21 18:43:59;;;;;;;4.87;2.60;;;13.70;80.50;;;;;;10488229;28;20221;-80
2022/09/21 18:49:32;;;;;;;4.30;1.80;;;13.70;81.60;;;;;;10479879;28;20223;-80
2022/09/21 18:54:33;;;;;;;2.50;1.87;;;13.60;82.30;;;;;;10464831;28;20250;-79
2022/09/21 18:59:34;;;;;;;2.67;1.73;;;13.40;82.90;;;;;;10456149;28;20301;-78
2022/09/21 19:04:35;;;;;;;3.53;1.83;;;13.30;84.10;;;;;;10475628;28;20215;-79
2022/09/21 19:09:36;;;;;;;2.77;1.80;;;13.10;87.00;;;;;;10476555;28;20587;-81
2022/09/21 19:15:15;;;;;;;4.53;3.03;;;12.90;91.40;;;;;;10491324;28;20319;-76
2022/09/21 19:20:39;;;;;;;3.90;3.03;;;12.70;92.30;;;;;;10490648;28;20218;-80
2022/09/21 19:25:47;;;;;;;5.37;2.87;;;12.60;94.00;;;;;;10473719;28;20230;-82
2022/09/21 19:30:51;;;;;;;6.47;4.20;;;12.40;96.20;;;;;;10496328;28;20220;-81
2022/09/21 19:35:53;;;;;;;4.77;4.00;;;12.20;99.20;;;;;;10494373;28;20498;-79
2022/09/21 19:41:17;;;;;;;7.40;5.47;;;12.10;99.90;;;;;;10483565;28;20231;-78
2022/09/21 19:46:38;;;;;;;3.00;2.17;;;12.00;99.90;;;;;;10482291;28;20225;-80
2022/09/21 19:51:50;;;;;;;3.97;2.10;;;11.90;99.90;;;;;;10492326;28;20219;-81
2022/09/21 20:02:11;;;;;;;2.70;2.40;;;11.80;99.90;;;;;;10492210;28;20598;-79
2022/09/21 20:07:19;;;;;;;4.50;2.77;;;11.70;99.90;;;;;;10498410;28;20223;-80
2022/09/21 20:12:27;;;;;;;4.63;2.50;;;11.70;99.90;;;;;;10482088;28;20363;-80
2022/09/21 20:17:47;;;;;;;4.87;3.57;;;11.60;99.90;;;;;;10494263;28;20230;-81
2022/09/21 20:22:48;;;;;;;3.87;3.00;;;11.50;99.90;;;;;;10491510;28;20229;-80
2022/09/21 20:27:54;;;;;;;4.20;1.83;;;11.40;99.90;;;;;;10477198;28;20226;-78
2022/09/21 20:32:59;;;;;;;4.70;3.03;;;11.30;99.90;;;;;;10491915;28;20220;-80
2022/09/21 20:37:59;;;;;;;4.23;2.67;;;11.30;99.90;;;;;;10498797;28;20330;-81
2022/09/21 20:43:00;;;;;;;3.23;2.93;;;11.30;99.90;;;;;;10496400;28;20310;-81
2022/09/21 20:48:11;;;;;;;3.30;2.70;;;11.20;99.90;;;;;;10475251;28;20234;-78
2022/09/21 20:53:12;;;;;;;3.57;2.87;;;11.20;99.90;;;;;;10476890;28;20245;-79
2022/09/21 20:58:13;;;;;;;4.47;3.03;;;11.20;99.90;;;;;;10495844;28;20591;-76
2022/09/21 21:03:13;;;;;;;2.90;2.60;;;11.20;99.90;;;;;;10493835;28;20656;-79
2022/09/21 21:08:14;;;;;;;4.83;2.80;;;11.00;99.90;;;;;;10493115;28;20240;-77
2022/09/21 21:13:14;;;;;;;5.37;2.67;;;11.00;99.90;;;;;;10495422;28;20223;-77
2022/09/21 21:18:16;;;;;;;4.17;2.93;;;10.80;99.90;;;;;;10489909;28;20218;-75
2022/09/21 21:23:16;;;;;;;5.77;3.00;;;10.70;99.90;;;;;;10483790;28;20226;-74
2022/09/21 21:28:17;;;;;;;6.23;2.97;;;10.70;99.90;;;;;;10481387;28;20249;-77
2022/09/21 21:33:18;;;;;;;4.37;3.10;;;10.60;99.90;;;;;;10517513;28;20219;-80
2022/09/21 21:38:19;;;;;;;4.67;3.20;;;10.60;99.90;;;;;;10487346;28;20268;-76
2022/09/21 21:43:19;;;;;;;5.57;3.50;;;10.50;99.90;;;;;;10451773;28;20219;-75
2022/09/21 21:48:20;;;;;;;4.33;3.83;;;10.50;99.90;;;;;;10467869;28;20216;-74
2022/09/21 21:53:20;;;;;;;5.07;3.40;;;10.50;99.90;;;;;;10469916;28;20235;-76
2022/09/21 21:58:21;;;;;;;5.83;4.33;;;10.40;99.90;;;;;;10486813;28;20219;-79
2022/09/21 22:03:22;;;;;;;7.10;4.30;;;10.40;99.90;;;;;;10485482;28;20246;-79
2022/09/21 22:08:26;;;;;;;7.33;4.83;;;10.30;99.90;;;;;;10475558;28;20219;-80
2022/09/21 22:13:28;;;;;;;7.17;5.27;;;10.20;99.90;;;;;;10477477;28;20226;-78
2022/09/21 22:18:29;;;;;;;5.50;3.20;;;10.20;99.90;;;;;;10494432;28;20218;-79
2022/09/21 22:23:31;;;;;;;3.93;2.93;;;10.20;99.90;;;;;;10485544;28;20245;-78
2022/09/21 22:28:33;;;;;;;4.90;2.57;;;10.10;99.90;;;;;;10489704;28;20225;-79
2022/09/21 22:33:36;;;;;;;3.87;2.20;;;10.10;99.90;;;;;;10493970;28;20230;-76
2022/09/21 22:38:38;;;;;;;4.60;2.33;;;10.10;99.90;;;;;;10480244;28;20294;-75
2022/09/21 22:43:39;;;;;;;5.47;2.53;;;10.10;99.90;;;;;;10491546;28;20222;-75
2022/09/21 22:48:40;;;;;;;2.80;2.03;;;10.00;99.90;;;;;;10494517;28;20240;-76
2022/09/21 22:53:41;;;;;;;6.93;2.50;;;10.00;99.90;;;;;;10477308;28;20238;-75
2022/09/21 22:58:44;;;;;;;5.10;2.20;;;9.90;99.90;;;;;;10483707;28;20309;-77
2022/09/21 23:03:48;;;;;;;3.10;2.10;;;9.90;99.90;;;;;;10491814;28;20310;-76
2022/09/21 23:08:50;;;;;;;2.50;1.97;;;9.80;99.90;;;;;;10470593;28;20227;-75
2022/09/21 23:13:55;;;;;;;3.60;2.03;;;9.70;99.90;;;;;;10485900;28;20222;-76
2022/09/21 23:18:57;;;;;;;4.60;2.00;;;9.60;99.90;;;;;;10484816;28;20215;-75
2022/09/21 23:24:01;;;;;;;3.00;2.00;;;9.50;99.90;;;;;;10486348;28;20225;-75
2022/09/21 23:29:07;;;;;;;2.53;1.90;;;9.50;99.90;;;;;;10475384;28;20221;-76
2022/09/21 23:34:11;;;;;;;4.20;2.30;;;9.50;99.90;;;;;;10491413;28;20827;-78
2022/09/21 23:39:13;;;;;;;3.03;2.27;;;9.50;99.90;;;;;;10496484;28;20221;-78
2022/09/21 23:44:14;;;;;;;2.67;2.13;;;9.40;99.90;;;;;;10496897;28;20221;-77
2022/09/21 23:49:18;;;;;;;2.40;2.20;;;9.40;99.90;;;;;;10489047;28;20228;-76
2022/09/21 23:54:18;;;;;;;3.63;2.30;;;9.40;99.90;;;;;;10489215;28;20222;-76
2022/09/21 23:59:19;;;;;;;3.17;2.30;;;9.30;99.90;;;;;;10500745;28;20225;-79
